Time;durP1;ratioP1;P1;durP2;ratioP2;P2;SDS_P1;SDS_P2;PMS_P1;PMS_P2;Temp;Humidity;BMP_temperature;BMP_pressure;BME280_temperature;BME280_humidity;BME280_pressure;Samples;Min_cycle;Max_cycle;Signal;HPM_P1;HPM_P2
2022/01/04 00:02:20;;;;;;;1.35;0.57;;;;;;;;;;5031515;28;20425;-67
2022/01/04 00:04:45;;;;;;;2.30;0.50;;;;;;;;;;5031304;28;20441;-67
2022/01/04 00:07:10;;;;;;;5.35;1.00;;;;;;;;;;5030488;28;20322;-68
2022/01/04 00:09:40;;;;;;;1.05;0.52;;;;;;;;;;5031807;28;20017;-67
2022/01/04 00:14:49;;;;;;;2.15;0.50;;;;;;;;;;5030477;28;20083;-67
2022/01/04 00:17:14;;;;;;;1.50;0.40;;;;;;;;;;5029230;28;20029;-68
2022/01/04 00:19:39;;;;;;;5.72;0.55;;;;;;;;;;5030828;28;20375;-68
2022/01/04 00:22:08;;;;;;;3.33;0.80;;;;;;;;;;5031007;28;20109;-69
2022/01/04 00:24:33;;;;;;;1.33;0.40;;;;;;;;;;5030981;28;20636;-68
2022/01/04 00:26:58;;;;;;;0.40;0.20;;;;;;;;;;5031306;28;20013;-68
2022/01/04 00:29:23;;;;;;;1.07;0.60;;;;;;;;;;5030745;28;20264;-69
2022/01/04 00:31:48;;;;;;;3.33;0.43;;;;;;;;;;5031302;28;20821;-68
2022/01/04 00:34:13;;;;;;;3.33;0.70;;;;;;;;;;5030801;28;20040;-68
2022/01/04 00:36:39;;;;;;;2.10;0.60;;;;;;;;;;5030904;28;20333;-68
2022/01/04 00:39:04;;;;;;;1.53;0.70;;;;;;;;;;5030840;28;20320;-68
2022/01/04 00:41:29;;;;;;;3.42;0.60;;;;;;;;;;5030647;28;20306;-68
2022/01/04 00:43:54;;;;;;;2.40;1.20;;;;;;;;;;5031016;28;20021;-68
2022/01/04 00:46:19;;;;;;;2.17;0.50;;;;;;;;;;5030417;28;20675;-69
2022/01/04 00:51:29;;;;;;;3.38;0.75;;;;;;;;;;5029741;28;20037;-68
2022/01/04 00:53:54;;;;;;;1.42;0.45;;;;;;;;;;5030679;28;20021;-68
2022/01/04 00:56:20;;;;;;;2.05;0.70;;;;;;;;;;5030913;28;20485;-68
2022/01/04 00:58:45;;;;;;;1.55;0.70;;;;;;;;;;5029067;28;20021;-68
2022/01/04 01:01:10;;;;;;;1.93;0.70;;;;;;;;;;5029940;28;20026;-68
2022/01/04 01:03:35;;;;;;;2.53;0.60;;;;;;;;;;5030149;28;20264;-68
2022/01/04 01:06:00;;;;;;;1.92;0.80;;;;;;;;;;5030002;28;20311;-68
2022/01/04 01:08:26;;;;;;;2.40;0.90;;;;;;;;;;5030165;28;20053;-68
2022/01/04 01:10:51;;;;;;;2.70;0.87;;;;;;;;;;5030931;28;20029;-68
2022/01/04 01:13:17;;;;;;;1.73;0.90;;;;;;;;;;5030582;28;20326;-68
2022/01/04 01:15:45;;;;;;;5.47;0.70;;;;;;;;;;5030331;28;20025;-68
2022/01/04 01:18:11;;;;;;;2.33;0.98;;;;;;;;;;5030015;28;20017;-67
2022/01/04 01:20:36;;;;;;;4.60;0.80;;;;;;;;;;5030183;28;20470;-67
2022/01/04 01:23:01;;;;;;;2.08;1.02;;;;;;;;;;5030476;28;20029;-67
2022/01/04 01:25:26;;;;;;;2.72;0.80;;;;;;;;;;5029807;28;20089;-67
2022/01/04 01:27:52;;;;;;;5.88;1.02;;;;;;;;;;5030601;28;20547;-67
2022/01/04 01:30:17;;;;;;;2.72;1.20;;;;;;;;;;5030748;28;20025;-68
2022/01/04 01:32:43;;;;;;;3.83;1.20;;;;;;;;;;5029222;28;20053;-68
2022/01/04 01:35:08;;;;;;;3.03;0.93;;;;;;;;;;5030774;28;20105;-67
2022/01/04 01:37:34;;;;;;;7.82;1.13;;;;;;;;;;5030152;28;20033;-67
2022/01/04 01:39:59;;;;;;;3.22;0.90;;;;;;;;;;5030562;28;20133;-67
2022/01/04 01:42:24;;;;;;;2.45;0.95;;;;;;;;;;5030283;28;20038;-67
2022/01/04 01:44:51;;;;;;;2.78;0.85;;;;;;;;;;5030584;28;20025;-67
2022/01/04 01:47:16;;;;;;;4.65;0.73;;;;;;;;;;5029997;28;20017;-68
2022/01/04 01:49:41;;;;;;;1.65;0.93;;;;;;;;;;5030004;28;20031;-68
2022/01/04 01:52:06;;;;;;;2.28;0.90;;;;;;;;;;5030272;28;20459;-68
2022/01/04 01:54:32;;;;;;;2.97;0.93;;;;;;;;;;5029985;28;20037;-68
2022/01/04 01:56:57;;;;;;;2.95;0.77;;;;;;;;;;5029979;28;20096;-68
2022/01/04 01:59:22;;;;;;;3.47;0.85;;;;;;;;;;5029783;28;20061;-68
2022/01/04 02:01:48;;;;;;;2.58;1.40;;;;;;;;;;5029500;28;20458;-68
2022/01/04 02:04:13;;;;;;;9.82;1.40;;;;;;;;;;5030143;28;20018;-68
2022/01/04 02:06:38;;;;;;;3.28;1.20;;;;;;;;;;5029829;28;20025;-68
2022/01/04 02:09:04;;;;;;;4.93;1.17;;;;;;;;;;5029502;28;20104;-68
2022/01/04 02:11:30;;;;;;;5.53;1.45;;;;;;;;;;5029529;28;20021;-68
2022/01/04 02:13:59;;;;;;;4.22;1.73;;;;;;;;;;5029995;28;20017;-68
2022/01/04 02:16:25;;;;;;;3.17;1.35;;;;;;;;;;5029232;28;20048;-68
2022/01/04 02:18:50;;;;;;;2.95;1.85;;;;;;;;;;5029106;28;20451;-68
2022/01/04 02:21:15;;;;;;;5.20;1.73;;;;;;;;;;5031364;28;20040;-68
2022/01/04 02:23:40;;;;;;;4.57;1.90;;;;;;;;;;5031866;28;20013;-68
2022/01/04 02:26:06;;;;;;;2.57;1.43;;;;;;;;;;5029624;28;20449;-68
2022/01/04 02:28:31;;;;;;;4.32;1.75;;;;;;;;;;5029444;28;20362;-68
2022/01/04 02:30:57;;;;;;;5.57;1.88;;;;;;;;;;5029519;28;20006;-68
2022/01/04 02:33:22;;;;;;;3.75;1.75;;;;;;;;;;5029740;28;20017;-68
2022/01/04 02:35:47;;;;;;;4.22;2.00;;;;;;;;;;5029630;28;20509;-68
2022/01/04 02:38:12;;;;;;;6.85;2.10;;;;;;;;;;5032068;28;20397;-68
2022/01/04 02:40:38;;;;;;;3.65;2.28;;;;;;;;;;5032561;28;20029;-68
2022/01/04 02:43:03;;;;;;;4.00;2.10;;;;;;;;;;5033449;28;20497;-68
2022/01/04 02:45:28;;;;;;;7.65;2.90;;;;;;;;;;5032912;28;20022;-68
2022/01/04 02:47:54;;;;;;;5.10;2.45;;;;;;;;;;5033264;28;20108;-68
2022/01/04 02:50:19;;;;;;;4.60;2.73;;;;;;;;;;5033578;28;20032;-68
2022/01/04 02:52:44;;;;;;;6.15;2.47;;;;;;;;;;5033154;28;20329;-68
2022/01/04 02:55:11;;;;;;;3.58;2.35;;;;;;;;;;5033085;28;20033;-68
2022/01/04 02:57:37;;;;;;;6.80;2.85;;;;;;;;;;5032173;28;20032;-68
2022/01/04 03:00:04;;;;;;;6.97;3.00;;;;;;;;;;5033037;28;20033;-68
2022/01/04 03:02:29;;;;;;;6.40;2.88;;;;;;;;;;5033128;28;20021;-68
2022/01/04 03:04:54;;;;;;;4.78;2.88;;;;;;;;;;5041802;23;20470;-68
2022/01/04 03:07:19;;;;;;;5.63;3.25;;;;;;;;;;5011545;28;20375;-68
2022/01/04 03:09:44;;;;;;;10.43;3.50;;;;;;;;;;5012574;28;20026;-68
2022/01/04 03:12:10;;;;;;;7.00;3.40;;;;;;;;;;5012346;28;20212;-68
2022/01/04 03:14:35;;;;;;;9.25;3.28;;;;;;;;;;5012830;28;20033;-68
2022/01/04 03:17:00;;;;;;;5.30;3.13;;;;;;;;;;5013668;28;20025;-68
2022/01/04 03:19:26;;;;;;;5.50;3.40;;;;;;;;;;5013120;28;20482;-68
2022/01/04 03:21:51;;;;;;;7.95;3.47;;;;;;;;;;5012716;28;20030;-68
2022/01/04 03:24:16;;;;;;;7.80;3.10;;;;;;;;;;5013213;28;20022;-68
2022/01/04 03:26:42;;;;;;;5.75;3.08;;;;;;;;;;5012696;28;20497;-68
2022/01/04 03:29:08;;;;;;;3.95;2.20;;;;;;;;;;5012440;28;20037;-68
2022/01/04 03:31:33;;;;;;;3.85;2.60;;;;;;;;;;5012639;28;20429;-68
2022/01/04 03:33:59;;;;;;;7.18;3.20;;;;;;;;;;5012945;28;20028;-68
2022/01/04 03:36:25;;;;;;;7.82;3.35;;;;;;;;;;5013030;28;20554;-68
2022/01/04 03:38:51;;;;;;;6.55;2.95;;;;;;;;;;5011897;28;20186;-68
2022/01/04 03:41:17;;;;;;;4.57;2.40;;;;;;;;;;5012313;28;20112;-68
2022/01/04 03:43:42;;;;;;;5.47;3.00;;;;;;;;;;5012849;28;20026;-68
2022/01/04 03:46:07;;;;;;;6.72;3.35;;;;;;;;;;5012041;28;20048;-68
2022/01/04 03:48:34;;;;;;;9.25;2.83;;;;;;;;;;5011173;28;20045;-68
2022/01/04 03:50:59;;;;;;;6.80;3.40;;;;;;;;;;5002949;28;20018;-68
2022/01/04 03:53:24;;;;;;;8.40;3.07;;;;;;;;;;5012766;28;20071;-68
2022/01/04 03:55:49;;;;;;;6.57;3.53;;;;;;;;;;5011945;28;20280;-68
2022/01/04 03:58:14;;;;;;;4.50;1.98;;;;;;;;;;5010983;28;20099;-68
2022/01/04 04:00:39;;;;;;;4.97;2.55;;;;;;;;;;5011824;28;20125;-68
2022/01/04 04:03:05;;;;;;;5.28;2.65;;;;;;;;;;5012004;28;20092;-68
2022/01/04 04:05:30;;;;;;;6.10;3.17;;;;;;;;;;5011944;28;20022;-68
2022/01/04 04:07:55;;;;;;;11.02;2.75;;;;;;;;;;5011750;28;20022;-68
2022/01/04 04:10:22;;;;;;;6.68;2.95;;;;;;;;;;5012306;28;20475;-68
2022/01/04 04:12:48;;;;;;;6.15;3.30;;;;;;;;;;5011927;28;20029;-68
2022/01/04 04:15:13;;;;;;;9.27;4.00;;;;;;;;;;5011826;28;20029;-68
2022/01/04 04:17:38;;;;;;;9.25;3.80;;;;;;;;;;5010309;28;20390;-68
2022/01/04 04:20:05;;;;;;;10.40;4.13;;;;;;;;;;5011117;28;20025;-68
2022/01/04 04:22:30;;;;;;;8.82;4.70;;;;;;;;;;5011487;28;20014;-68
2022/01/04 04:24:55;;;;;;;8.50;4.22;;;;;;;;;;5011857;28;20029;-68
2022/01/04 04:27:20;;;;;;;11.60;4.68;;;;;;;;;;5011155;28;20057;-68
2022/01/04 04:29:46;;;;;;;10.07;4.75;;;;;;;;;;5012674;28;20034;-68
2022/01/04 04:32:11;;;;;;;9.70;4.97;;;;;;;;;;5010325;28;20030;-68
2022/01/04 04:34:36;;;;;;;12.23;6.57;;;;;;;;;;5011203;28;20052;-68
2022/01/04 04:37:01;;;;;;;9.45;4.93;;;;;;;;;;5011271;28;20026;-68
2022/01/04 04:39:27;;;;;;;10.00;5.45;;;;;;;;;;5011102;28;20026;-68
2022/01/04 04:41:52;;;;;;;15.80;6.18;;;;;;;;;;5011402;28;20032;-68
2022/01/04 04:44:18;;;;;;;12.27;6.30;;;;;;;;;;5011260;28;20049;-68
2022/01/04 04:46:43;;;;;;;16.98;8.05;;;;;;;;;;5010892;28;20096;-68
2022/01/04 04:49:08;;;;;;;15.20;7.88;;;;;;;;;;5010698;28;20068;-68
2022/01/04 04:51:33;;;;;;;13.10;6.87;;;;;;;;;;5011873;28;20037;-68
2022/01/04 04:53:59;;;;;;;7.10;4.03;;;;;;;;;;5011818;28;20331;-68
2022/01/04 04:56:24;;;;;;;20.60;8.73;;;;;;;;;;5010087;28;20026;-66
2022/01/04 04:58:49;;;;;;;16.58;8.48;;;;;;;;;;5010462;28;20018;-66
2022/01/04 05:01:14;;;;;;;10.68;5.72;;;;;;;;;;5010861;28;20029;-66
2022/01/04 05:03:40;;;;;;;15.38;7.82;;;;;;;;;;5010489;28;20092;-66
2022/01/04 05:06:05;;;;;;;17.17;7.40;;;;;;;;;;5010923;28;20382;-66
2022/01/04 05:08:30;;;;;;;18.15;8.32;;;;;;;;;;5010485;28;20115;-66
2022/01/04 05:10:57;;;;;;;21.23;9.67;;;;;;;;;;5010148;28;20025;-66
2022/01/04 05:13:22;;;;;;;13.93;7.00;;;;;;;;;;5010777;28;20276;-66
2022/01/04 05:15:47;;;;;;;19.00;8.63;;;;;;;;;;5009834;28;20010;-66
2022/01/04 05:18:13;;;;;;;20.05;8.20;;;;;;;;;;5010369;28;20513;-66
2022/01/04 05:20:38;;;;;;;15.63;8.02;;;;;;;;;;5010988;28;20148;-66
2022/01/04 05:23:03;;;;;;;21.80;9.82;;;;;;;;;;5010307;28;20017;-66
2022/01/04 05:25:28;;;;;;;21.33;9.15;;;;;;;;;;5010270;28;20022;-66
2022/01/04 05:27:53;;;;;;;21.98;9.52;;;;;;;;;;5010768;28;20044;-66
2022/01/04 05:30:19;;;;;;;21.60;10.93;;;;;;;;;;5010062;28;20112;-66
2022/01/04 05:32:44;;;;;;;17.75;8.88;;;;;;;;;;5010320;28;20482;-66
2022/01/04 05:35:09;;;;;;;23.15;10.00;;;;;;;;;;5010175;28;20486;-66
2022/01/04 05:37:34;;;;;;;26.55;10.80;;;;;;;;;;5009421;28;20026;-66
2022/01/04 05:39:59;;;;;;;21.57;8.63;;;;;;;;;;5010249;28;20394;-66
2022/01/04 05:42:25;;;;;;;20.85;10.30;;;;;;;;;;5010242;28;20287;-66
2022/01/04 05:44:50;;;;;;;23.25;11.90;;;;;;;;;;5010114;28;20017;-66
2022/01/04 05:47:15;;;;;;;23.27;10.70;;;;;;;;;;5009277;28;20022;-66
2022/01/04 05:49:40;;;;;;;20.13;9.45;;;;;;;;;;5010051;28;20090;-66
2022/01/04 05:52:06;;;;;;;22.27;9.43;;;;;;;;;;5009682;28;20465;-65
2022/01/04 05:54:32;;;;;;;25.10;10.77;;;;;;;;;;5010233;28;20168;-65
2022/01/04 05:56:57;;;;;;;29.55;11.50;;;;;;;;;;5009250;28;20037;-64
2022/01/04 05:59:22;;;;;;;23.90;10.35;;;;;;;;;;5007782;28;20506;-65
2022/01/04 06:01:47;;;;;;;22.77;9.98;;;;;;;;;;5008065;28;20029;-65
2022/01/04 06:04:12;;;;;;;19.75;9.63;;;;;;;;;;5009736;28;20030;-65
2022/01/04 06:06:41;;;;;;;19.95;9.40;;;;;;;;;;5009834;28;20121;-65
2022/01/04 06:09:08;;;;;;;26.10;10.70;;;;;;;;;;5010137;28;20502;-65
2022/01/04 06:16:57;;;;;;;34.40;11.25;;;;;;;;;;5012535;28;20641;-67
2022/01/04 06:19:23;;;;;;;26.50;11.93;;;;;;;;;;5012846;28;20026;-67
2022/01/04 06:21:48;;;;;;;23.98;10.70;;;;;;;;;;5026784;28;20049;-67
2022/01/04 06:24:13;;;;;;;25.40;11.20;;;;;;;;;;5014824;28;20112;-67
2022/01/04 06:26:38;;;;;;;24.37;10.73;;;;;;;;;;5014020;28;20265;-67
2022/01/04 06:29:03;;;;;;;27.02;11.50;;;;;;;;;;5014013;28;20343;-67
2022/01/04 06:31:29;;;;;;;27.92;10.45;;;;;;;;;;5013230;28;20018;-67
2022/01/04 06:33:54;;;;;;;30.75;11.65;;;;;;;;;;5014033;28;20030;-67
2022/01/04 06:36:20;;;;;;;26.38;11.18;;;;;;;;;;5013431;28;20029;-67
2022/01/04 06:38:45;;;;;;;16.75;7.45;;;;;;;;;;5011875;28;20026;-67
2022/01/04 06:41:10;;;;;;;24.20;10.47;;;;;;;;;;5013614;28;20021;-67
2022/01/04 06:43:35;;;;;;;25.48;10.63;;;;;;;;;;5013464;28;20348;-67
2022/01/04 06:46:00;;;;;;;32.47;12.00;;;;;;;;;;5013325;28;20022;-67
2022/01/04 06:48:25;;;;;;;33.72;12.10;;;;;;;;;;5012829;28;20281;-67
2022/01/04 06:50:51;;;;;;;32.47;12.57;;;;;;;;;;5012886;28;20145;-67
2022/01/04 06:53:17;;;;;;;35.10;13.82;;;;;;;;;;5012673;28;20830;-67
2022/01/04 06:55:42;;;;;;;26.02;11.25;;;;;;;;;;5013450;28;20053;-67
2022/01/04 06:58:07;;;;;;;29.83;11.75;;;;;;;;;;5013177;28;20456;-67
2022/01/04 07:00:32;;;;;;;31.15;12.90;;;;;;;;;;5013175;28;20045;-67
2022/01/04 07:02:57;;;;;;;30.25;12.40;;;;;;;;;;5013011;28;20053;-67
2022/01/04 07:05:23;;;;;;;31.58;11.82;;;;;;;;;;5013193;28;20589;-66
2022/01/04 07:07:48;;;;;;;34.47;13.18;;;;;;;;;;5010843;28;20417;-67
2022/01/04 07:10:13;;;;;;;42.63;13.00;;;;;;;;;;5007335;28;20036;-66
2022/01/04 07:12:38;;;;;;;33.42;12.63;;;;;;;;;;5010998;28;20049;-66
2022/01/04 07:15:04;;;;;;;35.78;12.10;;;;;;;;;;5010392;28;20096;-67
2022/01/04 07:17:29;;;;;;;35.10;12.98;;;;;;;;;;5014049;28;20026;-66
2022/01/04 07:19:54;;;;;;;31.35;11.35;;;;;;;;;;5013106;28;20025;-67
2022/01/04 07:22:19;;;;;;;30.15;11.63;;;;;;;;;;5012983;28;20398;-67
2022/01/04 07:24:44;;;;;;;29.70;11.52;;;;;;;;;;5012520;28;20073;-67
2022/01/04 07:27:10;;;;;;;35.73;13.27;;;;;;;;;;5013081;28;20018;-67
2022/01/04 07:29:35;;;;;;;34.72;11.77;;;;;;;;;;5012651;28;20257;-66
2022/01/04 07:32:00;;;;;;;32.78;12.20;;;;;;;;;;5011054;28;20026;-66
2022/01/04 07:34:25;;;;;;;34.35;12.65;;;;;;;;;;5013090;28;20022;-66
2022/01/04 07:36:51;;;;;;;34.97;11.68;;;;;;;;;;5012618;28;20544;-66
2022/01/04 07:39:16;;;;;;;30.73;12.07;;;;;;;;;;5012289;28;20099;-66
2022/01/04 07:41:41;;;;;;;36.10;12.30;;;;;;;;;;5011960;28;20486;-66
2022/01/04 07:44:06;;;;;;;41.97;13.77;;;;;;;;;;5012643;28;20277;-66
2022/01/04 07:46:32;;;;;;;35.03;13.45;;;;;;;;;;5011368;28;20490;-66
2022/01/04 07:48:57;;;;;;;33.90;11.90;;;;;;;;;;5012223;28;20025;-66
2022/01/04 07:51:22;;;;;;;35.35;13.00;;;;;;;;;;5010696;28;20542;-66
2022/01/04 07:53:47;;;;;;;37.88;13.10;;;;;;;;;;5012808;28;20431;-67
2022/01/04 07:56:12;;;;;;;20.60;7.93;;;;;;;;;;5011000;28;20029;-67
2022/01/04 07:58:38;;;;;;;36.22;13.65;;;;;;;;;;5010774;28;20033;-67
2022/01/04 08:01:03;;;;;;;35.17;12.88;;;;;;;;;;5011575;28;20108;-67
2022/01/04 08:03:28;;;;;;;43.60;15.60;;;;;;;;;;5008265;28;20113;-67
2022/01/04 08:05:53;;;;;;;35.73;14.77;;;;;;;;;;5012206;28;20269;-67
2022/01/04 08:08:18;;;;;;;35.05;14.27;;;;;;;;;;5011661;28;20319;-67
2022/01/04 08:10:46;;;;;;;35.53;12.82;;;;;;;;;;5012136;28;20101;-65
2022/01/04 08:13:11;;;;;;;38.92;14.18;;;;;;;;;;5011326;28;20033;-64
2022/01/04 08:15:37;;;;;;;26.98;10.40;;;;;;;;;;5011528;28;20026;-65
2022/01/04 08:18:02;;;;;;;30.83;11.13;;;;;;;;;;5011503;28;20025;-65
2022/01/04 08:20:27;;;;;;;37.17;12.05;;;;;;;;;;5011691;28;20041;-65
2022/01/04 08:22:52;;;;;;;35.58;12.90;;;;;;;;;;5011917;28;20471;-65
2022/01/04 08:25:17;;;;;;;32.47;11.40;;;;;;;;;;5010776;28;20119;-67
2022/01/04 08:27:43;;;;;;;30.95;11.65;;;;;;;;;;5011770;28;20463;-67
2022/01/04 08:30:09;;;;;;;37.08;13.20;;;;;;;;;;5011475;28;20018;-67
2022/01/04 08:32:35;;;;;;;44.78;15.07;;;;;;;;;;5011348;28;20030;-67
2022/01/04 08:35:01;;;;;;;39.40;13.05;;;;;;;;;;5010543;28;20029;-67
2022/01/04 08:37:27;;;;;;;43.33;13.38;;;;;;;;;;5011519;28;20053;-66
2022/01/04 08:39:52;;;;;;;25.50;8.37;;;;;;;;;;5010786;28;20057;-66
2022/01/04 08:42:20;;;;;;;38.13;13.77;;;;;;;;;;5011822;28;20296;-66
2022/01/04 08:44:45;;;;;;;35.65;11.05;;;;;;;;;;5011634;28;20025;-67
2022/01/04 08:47:11;;;;;;;31.67;11.13;;;;;;;;;;5011721;28;20026;-67
2022/01/04 08:49:37;;;;;;;32.70;10.68;;;;;;;;;;5011303;28;20831;-67
2022/01/04 08:52:03;;;;;;;25.70;10.15;;;;;;;;;;5011442;28;20383;-66
2022/01/04 08:54:28;;;;;;;26.27;10.23;;;;;;;;;;5010524;28;20029;-66
2022/01/04 08:56:54;;;;;;;29.30;10.75;;;;;;;;;;5011635;28;20032;-65
2022/01/04 08:59:19;;;;;;;28.80;10.18;;;;;;;;;;5010451;28;20049;-65
2022/01/04 09:01:44;;;;;;;39.13;12.63;;;;;;;;;;5011577;28;20040;-66
2022/01/04 09:04:09;;;;;;;37.97;12.68;;;;;;;;;;5011086;28;20049;-66
2022/01/04 09:06:35;;;;;;;45.00;13.95;;;;;;;;;;5010996;28;20029;-67
2022/01/04 09:09:00;;;;;;;41.85;12.75;;;;;;;;;;5009344;28;20096;-67
2022/01/04 09:11:25;;;;;;;38.47;11.70;;;;;;;;;;5008605;28;20037;-67
2022/01/04 09:13:54;;;;;;;40.60;13.02;;;;;;;;;;5010135;28;20025;-68
2022/01/04 09:19:04;;;;;;;34.10;10.85;;;;;;;;;;5010076;28;20068;-67
2022/01/04 09:21:29;;;;;;;25.98;10.15;;;;;;;;;;5010886;28;20030;-66
2022/01/04 09:23:56;;;;;;;33.60;11.48;;;;;;;;;;5014286;28;20018;-67
2022/01/04 09:26:22;;;;;;;33.83;10.80;;;;;;;;;;5010614;28;20037;-67
2022/01/04 09:28:48;;;;;;;34.88;13.18;;;;;;;;;;5010507;28;20113;-67
2022/01/04 09:31:13;;;;;;;38.47;12.60;;;;;;;;;;5009165;28;20038;-67
2022/01/04 09:33:39;;;;;;;36.15;12.73;;;;;;;;;;5011096;28;20103;-69
2022/01/04 09:36:05;;;;;;;41.65;13.90;;;;;;;;;;5010690;28;20022;-67
2022/01/04 09:38:30;;;;;;;39.30;13.32;;;;;;;;;;5008927;28;20022;-67
2022/01/04 09:40:55;;;;;;;39.28;14.38;;;;;;;;;;5010074;28;20049;-67
2022/01/04 09:43:21;;;;;;;38.20;12.40;;;;;;;;;;5009956;28;20113;-68
2022/01/04 09:45:47;;;;;;;37.80;12.10;;;;;;;;;;5009220;28;20018;-68
2022/01/04 09:48:12;;;;;;;30.80;9.88;;;;;;;;;;5009363;28;20117;-67
2022/01/04 09:50:39;;;;;;;27.50;9.80;;;;;;;;;;5010203;28;20372;-69
2022/01/04 09:53:06;;;;;;;32.75;10.98;;;;;;;;;;5010243;28;20033;-67
2022/01/04 09:55:32;;;;;;;27.77;10.60;;;;;;;;;;5009462;28;20537;-67
2022/01/04 09:57:58;;;;;;;38.28;13.35;;;;;;;;;;5010049;28;20033;-68
2022/01/04 10:00:23;;;;;;;40.22;13.98;;;;;;;;;;5009460;28;20030;-67
2022/01/04 10:02:53;;;;;;;39.25;12.23;;;;;;;;;;5010159;28;20064;-67
2022/01/04 10:05:18;;;;;;;29.83;10.77;;;;;;;;;;5010286;28;20494;-67
2022/01/04 10:07:44;;;;;;;27.83;11.13;;;;;;;;;;5009842;28;20029;-67
2022/01/04 10:10:11;;;;;;;30.95;9.00;;;;;;;;;;5010288;28;20093;-70
2022/01/04 10:12:53;;;;;;;31.00;10.13;;;;;;;;;;5010086;28;20467;-68
2022/01/04 10:15:48;;;;;;;27.58;10.60;;;;;;;;;;5010351;28;20065;-67
2022/01/04 10:18:13;;;;;;;33.10;12.32;;;;;;;;;;5000404;28;20041;-66
2022/01/04 10:20:51;;;;;;;25.65;10.50;;;;;;;;;;5010681;28;20435;-69
2022/01/04 10:23:23;;;;;;;33.92;13.80;;;;;;;;;;5010313;28;20394;-68
2022/01/04 10:25:52;;;;;;;36.40;11.15;;;;;;;;;;5017234;28;20030;-67
2022/01/04 10:28:28;;;;;;;33.85;12.52;;;;;;;;;;5009102;28;20474;-67
2022/01/04 10:30:54;;;;;;;28.50;11.18;;;;;;;;;;5009634;28;20068;-66
2022/01/04 10:33:22;;;;;;;28.83;12.50;;;;;;;;;;5009570;28;20026;-67
2022/01/04 10:35:48;;;;;;;35.08;14.10;;;;;;;;;;5008334;28;20072;-68
2022/01/04 10:38:17;;;;;;;32.78;12.73;;;;;;;;;;5009887;28;20026;-68
2022/01/04 10:40:56;;;;;;;37.30;12.43;;;;;;;;;;5009649;28;20026;-66
2022/01/04 10:43:23;;;;;;;45.90;15.50;;;;;;;;;;5008642;28;20079;-66
2022/01/04 10:45:49;;;;;;;37.60;15.00;;;;;;;;;;5009426;28;20093;-69
2022/01/04 10:48:22;;;;;;;35.90;14.05;;;;;;;;;;5008440;28;20018;-68
2022/01/04 10:50:48;;;;;;;36.38;13.57;;;;;;;;;;5006022;28;20026;-68
2022/01/04 10:53:15;;;;;;;31.50;12.07;;;;;;;;;;5004820;28;20501;-68
2022/01/04 10:55:40;;;;;;;29.70;11.40;;;;;;;;;;5009062;28;20444;-67
2022/01/04 10:58:06;;;;;;;31.47;12.23;;;;;;;;;;5008526;28;20407;-68
2022/01/04 11:00:31;;;;;;;30.55;9.88;;;;;;;;;;5013419;28;20339;-67
2022/01/04 11:03:02;;;;;;;21.83;7.80;;;;;;;;;;5013325;28;20033;-67
2022/01/04 11:05:27;;;;;;;21.10;7.75;;;;;;;;;;5013222;28;20041;-69
2022/01/04 11:08:07;;;;;;;21.63;7.40;;;;;;;;;;5013361;28;20055;-68
2022/01/04 11:10:34;;;;;;;11.37;3.70;;;;;;;;;;5015328;28;20041;-68
2022/01/04 11:12:59;;;;;;;18.33;8.20;;;;;;;;;;5013047;28;20092;-68
2022/01/04 11:15:25;;;;;;;15.30;6.88;;;;;;;;;;5011473;28;20030;-68
2022/01/04 11:17:51;;;;;;;18.77;6.90;;;;;;;;;;5012503;28;20155;-67
2022/01/04 11:20:17;;;;;;;11.05;4.55;;;;;;;;;;5012836;28;20030;-67
2022/01/04 11:22:45;;;;;;;17.17;6.57;;;;;;;;;;5014387;28;20434;-68
2022/01/04 11:25:11;;;;;;;15.27;6.68;;;;;;;;;;5017608;28;20029;-67
2022/01/04 11:27:36;;;;;;;15.15;6.70;;;;;;;;;;5009409;28;20597;-67
2022/01/04 11:30:14;;;;;;;12.23;5.60;;;;;;;;;;5012019;28;20096;-67
2022/01/04 11:32:41;;;;;;;15.82;4.78;;;;;;;;;;5005265;28;20025;-67
2022/01/04 11:35:12;;;;;;;10.80;5.15;;;;;;;;;;5013007;28;20390;-68
2022/01/04 11:37:41;;;;;;;14.30;6.10;;;;;;;;;;5012468;28;20498;-69
2022/01/04 11:40:26;;;;;;;10.88;4.60;;;;;;;;;;5011838;28;20030;-68
2022/01/04 11:42:52;;;;;;;11.20;4.78;;;;;;;;;;5009173;28;20013;-67
2022/01/04 11:45:36;;;;;;;11.13;6.25;;;;;;;;;;5011883;28;20027;-67
2022/01/04 11:48:01;;;;;;;7.68;4.20;;;;;;;;;;5012530;28;20018;-67
2022/01/04 11:50:34;;;;;;;9.23;4.95;;;;;;;;;;5011822;28;20033;-68
2022/01/04 11:53:05;;;;;;;11.82;4.97;;;;;;;;;;5012319;28;20026;-67
2022/01/04 11:55:36;;;;;;;12.20;3.17;;;;;;;;;;5012393;28;20030;-68
2022/01/04 11:58:08;;;;;;;11.65;4.50;;;;;;;;;;5011829;28;20036;-68
2022/01/04 12:00:36;;;;;;;12.55;5.50;;;;;;;;;;5010115;28;21038;-67
2022/01/04 12:03:01;;;;;;;10.43;5.32;;;;;;;;;;5012222;28;20386;-69
2022/01/04 12:05:26;;;;;;;5.33;3.07;;;;;;;;;;5012322;28;20026;-68
2022/01/04 12:07:52;;;;;;;9.45;4.22;;;;;;;;;;5012404;28;20260;-68
2022/01/04 12:10:20;;;;;;;15.05;5.68;;;;;;;;;;5011886;28;20399;-69
2022/01/04 12:12:55;;;;;;;9.90;3.72;;;;;;;;;;5012297;28;20544;-67
2022/01/04 12:15:32;;;;;;;15.40;4.30;;;;;;;;;;5012589;28;20022;-69
2022/01/04 12:17:57;;;;;;;8.57;3.08;;;;;;;;;;5017735;28;20339;-67
2022/01/04 12:20:41;;;;;;;5.75;2.20;;;;;;;;;;5026558;28;20032;-67
2022/01/04 12:23:25;;;;;;;9.38;2.63;;;;;;;;;;5031966;28;20048;-68
2022/01/04 12:26:02;;;;;;;8.88;3.17;;;;;;;;;;5017233;28;20073;-67
2022/01/04 12:28:28;;;;;;;9.63;3.63;;;;;;;;;;5009706;28;20017;-67
2022/01/04 12:31:13;;;;;;;6.85;3.20;;;;;;;;;;5012611;28;20022;-68
2022/01/04 12:33:39;;;;;;;10.38;3.75;;;;;;;;;;5011039;28;20053;-67
2022/01/04 12:36:04;;;;;;;8.35;3.55;;;;;;;;;;5009636;28;20025;-67
2022/01/04 12:38:32;;;;;;;6.95;3.40;;;;;;;;;;5010757;28;20018;-68
2022/01/04 12:40:58;;;;;;;9.50;4.30;;;;;;;;;;5012168;28;20041;-67
2022/01/04 12:43:23;;;;;;;7.82;4.45;;;;;;;;;;5011089;28;20362;-67
2022/01/04 12:45:55;;;;;;;6.80;4.18;;;;;;;;;;5011420;28;20018;-67
2022/01/04 12:48:40;;;;;;;12.35;3.78;;;;;;;;;;5011300;28;20052;-67
2022/01/04 12:51:44;;;;;;;15.00;3.95;;;;;;;;;;5010798;28;20060;-67
2022/01/04 12:54:11;;;;;;;8.75;4.13;;;;;;;;;;4949854;28;20488;-67
2022/01/04 12:56:47;;;;;;;10.98;4.72;;;;;;;;;;4960015;28;20045;-68
2022/01/04 12:59:27;;;;;;;8.93;3.92;;;;;;;;;;4981842;28;20556;-68
2022/01/04 13:01:52;;;;;;;;;;;;;;;;;;5009156;28;20087;-69
2022/01/04 13:04:19;;;;;;;11.43;5.60;;;;;;;;;;5009229;28;19917;-68
2022/01/04 13:06:44;;;;;;;15.45;7.18;;;;;;;;;;5010454;28;20021;-67
2022/01/04 13:09:09;;;;;;;28.23;10.38;;;;;;;;;;5010622;28;20052;-67
2022/01/04 13:11:46;;;;;;;16.93;8.23;;;;;;;;;;5010813;28;20026;-68
2022/01/04 13:14:11;;;;;;;16.02;7.47;;;;;;;;;;5007572;28;20265;-67
2022/01/04 13:16:36;;;;;;;14.33;8.33;;;;;;;;;;5010945;28;20022;-68
2022/01/04 13:19:11;;;;;;;17.08;8.40;;;;;;;;;;5009928;28;20764;-67
2022/01/04 13:21:36;;;;;;;20.42;9.15;;;;;;;;;;5010679;28;20030;-68
2022/01/04 13:24:02;;;;;;;17.98;9.55;;;;;;;;;;5011486;28;20498;-67
2022/01/04 13:26:27;;;;;;;20.65;9.50;;;;;;;;;;5010512;28;20029;-68
2022/01/04 13:28:54;;;;;;;13.82;8.35;;;;;;;;;;5009820;28;20188;-68
2022/01/04 13:31:19;;;;;;;17.70;8.63;;;;;;;;;;5010118;28;20384;-68
2022/01/04 13:33:44;;;;;;;17.35;8.82;;;;;;;;;;5010466;28;20072;-67
2022/01/04 13:36:10;;;;;;;18.88;9.93;;;;;;;;;;5010384;28;20072;-67
2022/01/04 13:38:36;;;;;;;28.52;13.82;;;;;;;;;;5010564;28;20025;-67
2022/01/04 13:41:02;;;;;;;25.42;11.95;;;;;;;;;;5007980;28;20080;-68
2022/01/04 13:43:33;;;;;;;17.13;9.38;;;;;;;;;;5010262;28;20037;-68
2022/01/04 13:46:00;;;;;;;21.65;10.48;;;;;;;;;;5009705;28;20018;-67
2022/01/04 13:48:29;;;;;;;17.73;9.98;;;;;;;;;;5010233;28;20021;-67
2022/01/04 13:51:02;;;;;;;13.98;7.07;;;;;;;;;;5009878;28;20033;-67
2022/01/04 13:53:33;;;;;;;23.65;11.07;;;;;;;;;;5010324;28;20022;-68
2022/01/04 13:55:59;;;;;;;20.25;9.63;;;;;;;;;;5009495;28;20026;-68
2022/01/04 13:58:33;;;;;;;17.27;9.75;;;;;;;;;;5010614;28;20017;-67
2022/01/04 14:01:14;;;;;;;23.52;11.32;;;;;;;;;;5009364;28;20037;-67
2022/01/04 14:03:41;;;;;;;15.15;7.75;;;;;;;;;;5011593;28;20110;-68
2022/01/04 14:06:25;;;;;;;19.38;8.60;;;;;;;;;;5009984;28;20478;-67
2022/01/04 14:08:50;;;;;;;20.38;10.32;;;;;;;;;;5009160;28;20022;-68
2022/01/04 14:11:29;;;;;;;21.83;9.95;;;;;;;;;;5009734;28;20029;-68
2022/01/04 14:13:55;;;;;;;25.50;9.90;;;;;;;;;;5009459;28;20022;-67
2022/01/04 14:16:20;;;;;;;24.02;12.23;;;;;;;;;;5008407;28;20363;-68
2022/01/04 14:19:04;;;;;;;25.52;12.13;;;;;;;;;;5008365;28;20025;-67
2022/01/04 14:21:34;;;;;;;21.48;10.40;;;;;;;;;;5008581;28;20018;-67
2022/01/04 14:23:59;;;;;;;15.02;6.60;;;;;;;;;;5009639;28;20497;-68
2022/01/04 14:26:25;;;;;;;23.15;10.05;;;;;;;;;;5010520;28;20026;-67
2022/01/04 14:28:50;;;;;;;25.52;10.95;;;;;;;;;;5010441;28;20478;-67
2022/01/04 14:31:16;;;;;;;24.97;11.77;;;;;;;;;;5010425;28;20048;-67
2022/01/04 14:33:41;;;;;;;25.75;12.00;;;;;;;;;;5012420;28;20268;-68
2022/01/04 14:36:06;;;;;;;23.83;11.30;;;;;;;;;;5014057;28;20105;-67
2022/01/04 14:38:31;;;;;;;21.97;10.53;;;;;;;;;;5013140;28;20273;-68
2022/01/04 14:40:56;;;;;;;23.80;11.73;;;;;;;;;;5011244;28;20320;-66
2022/01/04 14:43:21;;;;;;;24.60;12.40;;;;;;;;;;5012942;28;20288;-68